Time;durP1;ratioP1;P1;durP2;ratioP2;P2;SDS_P1;SDS_P2;PMS_P1;PMS_P2;Temp;Humidity;BMP_temperature;BMP_pressure;BME280_temperature;BME280_humidity;BME280_pressure;Samples;Min_cycle;Max_cycle;Signal;HPM_P1;HPM_P2
2022/05/18 00:02:13;;;;;;;5.25;3.08;;;;;;;12.18;100.00;99346.02;1720052;82;21064;-81
2022/05/18 00:04:40;;;;;;;5.58;3.10;;;;;;;12.19;100.00;99341.47;1740354;82;21029;-79
2022/05/18 00:07:07;;;;;;;5.03;2.90;;;;;;;12.20;100.00;99334.49;1740182;82;21094;-81
2022/05/18 00:09:34;;;;;;;8.48;2.77;;;;;;;12.20;100.00;99343.98;1739354;82;21009;-74
2022/05/18 00:12:02;;;;;;;6.87;3.00;;;;;;;12.20;100.00;99350.75;1719094;82;21071;-75
2022/05/18 00:14:29;;;;;;;9.25;2.70;;;;;;;12.20;100.00;99338.56;1739556;82;21056;-74
2022/05/18 00:16:56;;;;;;;4.25;2.60;;;;;;;12.20;100.00;99334.49;1738320;82;21063;-75
2022/05/18 00:19:22;;;;;;;5.65;2.70;;;;;;;12.21;100.00;99343.45;1739220;82;21025;-74
2022/05/18 00:21:49;;;;;;;9.95;3.02;;;;;;;12.22;100.00;99344.61;1718544;82;21020;-75
2022/05/18 00:24:16;;;;;;;4.70;2.50;;;;;;;12.21;100.00;99339.39;1739317;82;21076;-74
2022/05/18 00:26:44;;;;;;;7.00;2.70;;;;;;;12.20;100.00;99332.28;1739240;82;21028;-74
2022/05/18 00:29:10;;;;;;;9.45;2.85;;;;;;;12.18;100.00;99325.70;1739204;82;21068;-72
2022/05/18 00:31:37;;;;;;;4.33;2.45;;;;;;;12.15;100.00;99324.23;1739248;82;21051;-74
2022/05/18 00:34:04;;;;;;;3.12;2.52;;;;;;;12.14;100.00;99329.85;1739384;82;21048;-73
2022/05/18 00:36:31;;;;;;;5.85;2.20;;;;;;;12.12;100.00;99332.75;1738338;82;21076;-75
2022/05/18 00:38:58;;;;;;;3.83;2.52;;;;;;;12.11;100.00;99331.59;1739071;82;21507;-74
2022/05/18 00:41:27;;;;;;;7.10;2.85;;;;;;;12.11;100.00;99326.17;1739178;82;20993;-73
2022/05/18 00:43:54;;;;;;;4.10;2.40;;;;;;;12.09;100.00;99326.41;1739591;82;21056;-73
2022/05/18 00:46:21;;;;;;;4.05;2.60;;;;;;;12.07;100.00;99327.09;1739350;82;20997;-73
2022/05/18 00:48:48;;;;;;;5.37;2.33;;;;;;;12.04;100.00;99334.78;1738609;82;21052;-74
2022/05/18 00:51:36;;;;;;;4.75;2.45;;;;;;;12.02;100.00;99339.03;1739402;82;21510;-73
2022/05/18 00:54:12;;;;;;;4.05;2.12;;;;;;;12.03;100.00;99342.61;1739495;82;21064;-75
2022/05/18 00:56:48;;;;;;;3.80;2.22;;;;;;;12.02;100.00;99338.20;1739645;82;21554;-74
2022/05/18 00:59:25;;;;;;;7.00;2.40;;;;;;;12.01;100.00;99339.27;1739366;82;21024;-73
2022/05/18 01:01:52;;;;;;;5.37;2.55;;;;;;;12.00;100.00;99338.92;1690489;85;21062;-74
2022/05/18 01:04:18;;;;;;;5.42;2.25;;;;;;;11.99;100.00;99333.17;1690535;85;21090;-74
2022/05/18 01:07:08;;;;;;;5.35;2.35;;;;;;;11.99;100.00;99329.97;1690754;85;21038;-73
2022/05/18 01:09:44;;;;;;;3.33;2.08;;;;;;;11.97;100.00;99319.86;1590305;90;21105;-72
2022/05/18 01:12:17;;;;;;;4.35;2.15;;;;;;;11.96;100.00;99325.77;1603558;89;21045;-73
2022/05/18 01:15:02;;;;;;;3.77;2.37;;;;;;;11.95;100.00;99332.23;1604619;89;21085;-76
2022/05/18 01:17:32;;;;;;;6.20;2.40;;;;;;;11.94;100.00;99335.14;1560523;92;21084;-73
2022/05/18 01:20:02;;;;;;;2.72;2.00;;;;;;;11.91;100.00;99330.94;1560199;92;21190;-73
2022/05/18 01:22:57;;;;;;;3.05;2.30;;;;;;;11.91;100.00;99335.53;1559947;92;21056;-74
2022/05/18 01:25:52;;;;;;;4.33;2.12;;;;;;;11.87;100.00;99330.16;1579838;90;21046;-74
2022/05/18 01:28:21;;;;;;;3.00;1.98;;;;;;;11.87;100.00;99330.98;1591748;86;21045;-74
2022/05/18 01:30:48;;;;;;;5.92;2.40;;;;;;;11.83;100.00;99327.02;1591768;90;21033;-74
2022/05/18 01:33:17;;;;;;;4.08;2.12;;;;;;;11.81;100.00;99323.66;1591759;90;21459;-73
2022/05/18 01:35:46;;;;;;;7.95;2.08;;;;;;;11.78;100.00;99326.23;1591667;89;21121;-75
2022/05/18 01:38:14;;;;;;;2.45;2.05;;;;;;;11.77;100.00;99322.36;1591562;90;21129;-75
2022/05/18 01:41:11;;;;;;;6.78;2.15;;;;;;;11.76;100.00;99320.18;1591624;90;21097;-74
2022/05/18 01:43:50;;;;;;;2.70;2.20;;;;;;;11.72;100.00;99324.33;1591813;90;21054;-74
2022/05/18 01:46:19;;;;;;;4.03;2.10;;;;;;;11.69;100.00;99327.41;1608881;87;21495;-74
2022/05/18 01:48:50;;;;;;;12.47;2.85;;;;;;;11.67;100.00;99325.42;1644855;87;21097;-74
2022/05/18 01:51:40;;;;;;;3.17;2.12;;;;;;;11.65;100.00;99336.11;1644736;87;21061;-74
2022/05/18 01:54:07;;;;;;;2.55;1.70;;;;;;;11.62;100.00;99327.88;1545064;89;21125;-74
2022/05/18 01:56:34;;;;;;;6.20;2.40;;;;;;;11.61;100.00;99333.48;1544949;93;21053;-75
2022/05/18 01:59:01;;;;;;;3.35;2.10;;;;;;;11.57;100.00;99337.09;1563011;92;21644;-73
2022/05/18 02:01:28;;;;;;;5.65;2.00;;;;;;;11.56;100.00;99335.41;1621770;88;21092;-74
2022/05/18 02:03:54;;;;;;;4.62;2.00;;;;;;;11.55;100.00;99333.75;1621922;88;21107;-74
2022/05/18 02:06:21;;;;;;;4.33;2.27;;;;;;;11.53;100.00;99345.30;1621846;88;21566;-74
2022/05/18 02:08:48;;;;;;;4.75;2.30;;;;;;;11.51;100.00;99340.56;1622016;88;21096;-74
2022/05/18 02:11:20;;;;;;;7.05;2.15;;;;;;;11.51;100.00;99340.08;1621660;88;21112;-73
2022/05/18 02:13:46;;;;;;;3.08;2.22;;;;;;;11.49;100.00;99327.25;1647912;87;21102;-74
2022/05/18 02:16:13;;;;;;;3.85;2.20;;;;;;;11.48;100.00;99327.44;1657028;87;21079;-75
2022/05/18 02:18:40;;;;;;;3.75;2.45;;;;;;;11.46;100.00;99323.57;1657175;87;21043;-73
2022/05/18 02:21:08;;;;;;;3.27;2.25;;;;;;;11.45;100.00;99331.36;1657103;87;21078;-74
2022/05/18 02:23:37;;;;;;;3.58;1.67;;;;;;;11.45;100.00;99331.88;1657108;87;21039;-75
2022/05/18 02:26:08;;;;;;;4.78;1.98;;;;;;;11.45;100.00;99331.88;1657180;87;21613;-74
2022/05/18 02:28:36;;;;;;;4.85;2.40;;;;;;;11.45;100.00;99331.88;1577042;91;21095;-74
2022/05/18 02:31:02;;;;;;;2.98;2.45;;;;;;;11.44;100.00;99331.55;1578809;90;21049;-74
2022/05/18 02:33:30;;;;;;;3.98;2.50;;;;;;;11.44;100.00;99338.31;1589310;90;21053;-73
2022/05/18 02:35:56;;;;;;;3.45;2.20;;;;;;;11.45;100.00;99336.77;1591885;90;21114;-73
2022/05/18 02:38:23;;;;;;;4.95;2.22;;;;;;;11.45;100.00;99340.84;1593219;90;21107;-74
2022/05/18 02:40:50;;;;;;;2.55;2.20;;;;;;;11.44;100.00;99336.97;1593285;90;21702;-74
2022/05/18 02:43:17;;;;;;;4.35;2.47;;;;;;;11.41;100.00;99335.50;1593493;90;21096;-75
2022/05/18 02:45:44;;;;;;;2.37;2.12;;;;;;;11.39;100.00;99334.33;1593351;90;21130;-74
2022/05/18 02:48:11;;;;;;;7.50;2.60;;;;;;;11.39;100.00;99332.98;1593619;90;21550;-75
2022/05/18 02:50:39;;;;;;;2.80;2.10;;;;;;;11.40;100.00;99333.81;1622154;86;21070;-73
2022/05/18 02:53:06;;;;;;;4.55;2.27;;;;;;;11.40;100.00;99333.31;1664419;86;21099;-74
2022/05/18 02:58:18;;;;;;;5.15;2.37;;;;;;;11.40;100.00;99343.28;1608416;88;21091;-75
2022/05/18 03:00:45;;;;;;;5.50;1.80;;;;;;;11.41;100.00;99344.97;1662767;86;21034;-75
2022/05/18 03:03:13;;;;;;;4.33;2.20;;;;;;;11.40;100.00;99346.84;1664547;86;21466;-74
2022/05/18 03:05:40;;;;;;;3.20;2.00;;;;;;;11.40;100.00;99346.84;1608930;88;21051;-75
2022/05/18 03:08:07;;;;;;;3.55;2.10;;;;;;;11.41;100.00;99351.73;1662653;86;21090;-76
2022/05/18 03:10:36;;;;;;;7.12;2.55;;;;;;;11.41;100.00;99354.45;1610411;87;21120;-75
2022/05/18 03:13:04;;;;;;;6.90;2.27;;;;;;;11.42;100.00;99352.07;1608820;88;21219;-75
2022/05/18 03:15:32;;;;;;;7.12;2.42;;;;;;;11.42;100.00;99356.13;1664792;86;21138;-74
2022/05/18 03:17:58;;;;;;;2.15;1.90;;;;;;;11.42;100.00;99364.25;1664677;86;21480;-75
2022/05/18 03:25:55;;;;;;;5.58;2.37;;;;;;;11.43;100.00;99370.50;1715260;82;21111;-74
2022/05/18 03:28:22;;;;;;;5.80;2.27;;;;;;;11.42;100.00;99379.14;1733865;82;21050;-81
2022/05/18 03:30:49;;;;;;;8.18;2.60;;;;;;;11.42;100.00;99379.63;1736506;81;21070;-78
2022/05/18 03:33:16;;;;;;;7.72;2.60;;;;;;;11.41;100.00;99380.16;1765684;80;21076;-82
2022/05/18 03:35:43;;;;;;;3.75;2.37;;;;;;;11.42;100.00;99380.50;1748453;81;21540;-80
2022/05/18 03:38:10;;;;;;;4.05;2.42;;;;;;;11.44;100.00;99387.05;1729089;82;21030;-81
2022/05/18 03:40:38;;;;;;;3.52;2.45;;;;;;;11.44;100.00;99396.02;1729309;83;21042;-80
2022/05/18 03:43:05;;;;;;;7.62;2.72;;;;;;;11.44;100.00;99394.67;1729147;83;21038;-81
2022/05/18 03:45:33;;;;;;;4.65;2.50;;;;;;;11.44;100.00;99404.14;1729572;83;21041;-80
2022/05/18 03:48:01;;;;;;;4.58;2.22;;;;;;;11.44;100.00;99416.82;1729491;83;21014;-80
2022/05/18 03:50:30;;;;;;;7.97;2.75;;;;;;;11.46;100.00;99430.50;1729569;82;21113;-83
2022/05/18 03:52:57;;;;;;;6.37;2.47;;;;;;;11.50;100.00;99445.33;1729521;83;21019;-80
2022/05/18 03:55:26;;;;;;;4.83;2.50;;;;;;;11.52;100.00;99450.03;1729443;83;21338;-82
2022/05/18 03:57:52;;;;;;;5.05;2.42;;;;;;;11.52;100.00;99454.09;1729509;82;21054;-79
2022/05/18 04:00:20;;;;;;;8.83;2.87;;;;;;;11.52;100.00;99456.80;1729222;83;21078;-79
2022/05/18 04:02:47;;;;;;;4.47;2.47;;;;;;;11.53;100.00;99467.14;1729143;82;21117;-81
2022/05/18 04:05:17;;;;;;;4.15;2.75;;;;;;;11.46;100.00;99461.64;1729403;83;21030;-80
2022/05/18 04:07:43;;;;;;;3.33;2.40;;;;;;;11.38;100.00;99459.89;1693999;84;21038;-80
2022/05/18 04:10:10;;;;;;;6.78;2.77;;;;;;;11.35;100.00;99467.53;1717162;84;20987;-80
2022/05/18 04:12:38;;;;;;;4.60;2.10;;;;;;;11.35;100.00;99464.33;1716997;84;21046;-80
2022/05/18 04:15:06;;;;;;;3.60;2.40;;;;;;;11.36;100.00;99464.63;1717117;84;21061;-79
2022/05/18 04:17:32;;;;;;;4.37;2.40;;;;;;;11.36;100.00;99465.98;1717285;84;21034;-79
2022/05/18 04:20:00;;;;;;;6.33;2.60;;;;;;;11.39;100.00;99462.08;1717196;82;21038;-78
2022/05/18 04:22:26;;;;;;;3.70;2.50;;;;;;;11.38;100.00;99465.31;1717244;84;21105;-79
2022/05/18 04:24:53;;;;;;;5.37;2.50;;;;;;;11.40;100.00;99473.21;1717029;84;21073;-78
2022/05/18 04:27:20;;;;;;;3.95;2.45;;;;;;;11.40;100.00;99476.78;1717097;84;21034;-77
2022/05/18 04:29:47;;;;;;;3.17;2.45;;;;;;;11.40;100.00;99478.13;1716916;84;21115;-78
2022/05/18 04:32:14;;;;;;;5.65;2.58;;;;;;;11.39;100.00;99474.26;1721716;83;21062;-78
2022/05/18 04:34:42;;;;;;;3.58;2.55;;;;;;;11.37;100.00;99479.03;1724621;83;21090;-77
2022/05/18 04:37:09;;;;;;;5.22;2.35;;;;;;;11.36;100.00;99469.22;1744116;82;21043;-76
2022/05/18 04:39:38;;;;;;;7.75;2.83;;;;;;;11.36;100.00;99467.34;1744975;82;21054;-77
2022/05/18 04:42:05;;;;;;;4.97;2.83;;;;;;;11.36;100.00;99466.52;1744997;82;21038;-77
2022/05/18 04:44:32;;;;;;;4.30;2.62;;;;;;;11.32;100.00;99459.81;1744711;82;21054;-77
2022/05/18 04:46:59;;;;;;;6.33;3.00;;;;;;;11.32;100.00;99463.88;1744682;82;21026;-76
2022/05/18 04:49:26;;;;;;;6.28;3.40;;;;;;;11.31;100.00;99464.89;1745190;82;21085;-76
2022/05/18 04:51:53;;;;;;;9.18;2.90;;;;;;;11.26;100.00;99463.26;1744914;82;21012;-76
2022/05/18 04:54:20;;;;;;;9.50;3.37;;;;;;;11.24;100.00;99466.16;1744978;82;21100;-78
2022/05/18 04:56:47;;;;;;;8.93;3.55;;;;;;;11.24;100.00;99457.20;1744615;82;21054;-70
2022/05/18 04:59:14;;;;;;;6.95;2.80;;;;;;;11.22;100.00;99454.69;1743962;82;21580;-72
2022/05/18 05:01:43;;;;;;;7.05;2.90;;;;;;;11.21;100.00;99455.20;1743935;82;21018;-72
2022/05/18 05:04:10;;;;;;;10.03;3.70;;;;;;;11.20;100.00;99449.45;1752746;81;21005;-71
2022/05/18 05:06:38;;;;;;;9.60;5.00;;;;;;;11.22;100.00;99446.56;1767488;81;21468;-70
2022/05/18 05:09:04;;;;;;;10.30;3.95;;;;;;;11.28;100.00;99443.11;1767271;81;21037;-70
2022/05/18 05:11:32;;;;;;;9.58;4.30;;;;;;;11.36;100.00;99439.44;1767194;81;21072;-70
2022/05/18 05:13:59;;;;;;;4.85;3.00;;;;;;;11.38;100.00;99434.67;1767038;81;20997;-70
2022/05/18 05:16:29;;;;;;;11.38;5.22;;;;;;;11.42;100.00;99429.72;1768499;81;21025;-70
2022/05/18 05:18:57;;;;;;;44.67;27.85;;;;;;;11.46;100.00;99436.44;1769052;81;21065;-70
2022/05/18 05:21:24;;;;;;;17.20;8.35;;;;;;;11.53;100.00;99431.41;1767873;81;20989;-74
2022/05/18 05:23:51;;;;;;;64.00;46.45;;;;;;;11.65;100.00;99418.21;1767639;81;21021;-71
2022/05/18 05:26:17;;;;;;;70.10;54.90;;;;;;;11.80;100.00;99426.26;1767467;81;21021;-73
2022/05/18 05:28:45;;;;;;;23.92;12.90;;;;;;;11.99;100.00;99423.94;1762977;81;20997;-70
2022/05/18 05:31:11;;;;;;;81.17;47.85;;;;;;;12.18;100.00;99430.05;1740507;81;20982;-70
2022/05/18 05:33:40;;;;;;;66.75;40.08;;;;;;;12.35;100.00;99423.30;1767292;81;21091;-70
2022/05/18 05:36:08;;;;;;;43.98;26.70;;;;;;;12.48;100.00;99421.22;1749454;81;21026;-69
2022/05/18 05:38:34;;;;;;;16.30;7.62;;;;;;;12.57;100.00;99428.68;1728370;82;20971;-71
2022/05/18 05:41:01;;;;;;;13.72;6.08;;;;;;;12.68;100.00;99429.47;1719452;82;21446;-71
2022/05/18 05:43:31;;;;;;;7.95;3.77;;;;;;;12.78;100.00;99429.61;1713415;84;21541;-78
2022/05/18 05:46:01;;;;;;;6.28;2.83;;;;;;;12.85;100.00;99444.88;1716188;83;21031;-84
2022/05/18 05:48:30;;;;;;;30.90;14.30;;;;;;;12.93;100.00;99437.11;1715877;83;20999;-78
2022/05/18 05:51:00;;;;;;;82.97;46.20;;;;;;;13.02;100.00;99440.50;1715291;84;21065;-81
2022/05/18 05:53:27;;;;;;;27.77;13.75;;;;;;;13.12;100.00;99442.33;1715198;83;21007;-84
2022/05/18 05:55:55;;;;;;;11.30;4.70;;;;;;;13.24;100.00;99442.56;1714920;83;21079;-83
2022/05/18 05:58:22;;;;;;;66.72;43.33;;;;;;;13.34;100.00;99442.22;1715198;83;21000;-79
2022/05/18 06:00:49;;;;;;;87.72;61.25;;;;;;;13.43;100.00;99445.06;1715079;84;21075;-78
2022/05/18 06:03:17;;;;;;;25.20;10.03;;;;;;;13.56;100.00;99450.52;1715006;83;21099;-80
2022/05/18 06:05:44;;;;;;;12.82;6.03;;;;;;;13.68;100.00;99455.67;1715272;84;21006;-82
2022/05/18 06:08:11;;;;;;;126.05;88.47;;;;;;;13.78;100.00;99466.16;1715004;84;21060;-79
2022/05/18 06:10:38;;;;;;;128.30;91.50;;;;;;;13.82;100.00;99462.50;1715870;83;21034;-80
2022/05/18 06:13:09;;;;;;;16.00;8.13;;;;;;;13.85;100.00;99460.74;1716427;84;21025;-79
2022/05/18 06:15:37;;;;;;;7.12;3.85;;;;;;;13.87;100.00;99466.80;1715859;84;21058;-83
2022/05/18 06:18:04;;;;;;;7.62;3.42;;;;;;;13.81;100.00;99469.83;1715478;83;21020;-83
2022/05/18 06:20:31;;;;;;;7.72;3.05;;;;;;;13.75;100.00;99476.60;1715223;84;21007;-83
2022/05/18 06:23:02;;;;;;;11.50;3.83;;;;;;;13.65;100.00;99479.70;1714945;83;21100;-82
2022/05/18 06:25:29;;;;;;;12.20;3.08;;;;;;;13.61;100.00;99481.98;1715499;82;21055;-81
2022/05/18 06:27:57;;;;;;;8.25;3.42;;;;;;;13.61;100.00;99487.42;1715207;84;21015;-80
2022/05/18 06:30:23;;;;;;;9.80;3.12;;;;;;;13.62;100.00;99489.11;1715407;82;21007;-78
2022/05/18 06:32:50;;;;;;;7.08;3.30;;;;;;;13.63;100.00;99492.66;1727871;83;20995;-78
2022/05/18 06:35:17;;;;;;;15.53;6.67;;;;;;;13.68;100.00;99484.73;1716908;83;20951;-74
2022/05/18 06:37:44;;;;;;;35.03;26.10;;;;;;;13.82;100.00;99486.96;1710819;83;21031;-78
2022/05/18 06:40:11;;;;;;;32.53;10.78;;;;;;;13.99;100.00;99487.42;1705884;83;21027;-81
2022/05/18 06:42:39;;;;;;;12.82;5.65;;;;;;;14.35;100.00;99487.02;1715428;84;21043;-83
2022/05/18 06:45:09;;;;;;;18.55;7.85;;;;;;;14.35;100.00;99487.02;1715697;83;21012;-81
2022/05/18 06:47:36;;;;;;;27.02;10.25;;;;;;;14.48;100.00;99493.50;1714865;83;21375;-75
2022/05/18 06:50:07;;;;;;;12.50;3.70;;;;;;;14.59;100.00;99498.36;1714749;83;20992;-77
2022/05/18 06:52:34;;;;;;;35.17;6.22;;;;;;;14.66;100.00;99494.25;1714876;83;21063;-78
2022/05/18 06:55:01;;;;;;;31.23;10.63;;;;;;;14.83;100.00;99489.21;1714743;84;21032;-75
2022/05/18 06:57:27;;;;;;;9.68;3.02;;;;;;;15.01;100.00;99492.09;1714457;84;21011;-80
2022/05/18 06:59:54;;;;;;;10.20;3.05;;;;;;;15.09;100.00;99485.06;1714565;84;21023;-79
2022/05/18 07:02:22;;;;;;;9.00;2.90;;;;;;;15.18;100.00;99485.66;1714568;83;21004;-79
2022/05/18 07:04:49;;;;;;;12.73;3.20;;;;;;;15.35;100.00;99499.12;1713797;84;21058;-79
2022/05/18 07:07:18;;;;;;;13.18;3.08;;;;;;;15.51;100.00;99502.38;1713490;83;21011;-78
2022/05/18 07:09:44;;;;;;;10.18;2.40;;;;;;;15.64;100.00;99501.51;1714198;82;21016;-78
2022/05/18 07:12:11;;;;;;;14.80;3.20;;;;;;;15.72;100.00;99502.09;1713570;84;21007;-79
2022/05/18 07:14:39;;;;;;;5.80;2.52;;;;;;;15.72;99.18;99499.88;1713374;83;21569;-79
2022/05/18 07:17:06;;;;;;;7.50;3.25;;;;;;;15.68;98.27;99500.84;1713404;83;21576;-76
2022/05/18 07:19:35;;;;;;;7.42;3.00;;;;;;;15.71;100.00;99500.95;1713726;84;21087;-75
2022/05/18 07:22:05;;;;;;;5.53;2.65;;;;;;;15.73;100.00;99502.92;1713830;83;21617;-75
2022/05/18 07:24:32;;;;;;;18.25;3.15;;;;;;;15.76;97.36;99503.89;1714010;83;21007;-79
2022/05/18 07:26:59;;;;;;;8.70;2.80;;;;;;;15.72;97.59;99503.97;1714047;83;21036;-78
2022/05/18 07:29:25;;;;;;;9.50;3.33;;;;;;;15.74;98.96;99500.48;1729853;82;21058;-79
2022/05/18 07:32:12;;;;;;;5.62;2.60;;;;;;;15.81;98.15;99503.22;1677411;85;21000;-77
2022/05/18 07:34:41;;;;;;;16.82;5.42;;;;;;;15.88;97.26;99497.20;1684331;84;21032;-75
2022/05/18 07:37:08;;;;;;;13.00;4.53;;;;;;;15.91;97.41;99497.59;1695044;83;21027;-76
2022/05/18 07:39:36;;;;;;;20.02;6.20;;;;;;;16.04;96.29;99499.93;1703494;83;21445;-79
2022/05/18 07:42:05;;;;;;;15.15;4.25;;;;;;;16.11;93.43;99498.84;1704847;83;21020;-74
2022/05/18 07:44:33;;;;;;;8.58;3.20;;;;;;;16.21;89.51;99504.34;1701728;83;21051;-74
2022/05/18 07:46:59;;;;;;;9.45;3.40;;;;;;;16.23;88.44;99503.58;1705891;83;21023;-78
2022/05/18 07:49:27;;;;;;;13.50;3.30;;;;;;;16.25;87.07;99503.66;1719991;81;21074;-75
2022/05/18 07:51:53;;;;;;;9.53;4.28;;;;;;;16.35;84.31;99497.72;1764942;81;21118;-73
2022/05/18 07:54:20;;;;;;;14.78;6.15;;;;;;;16.46;83.45;99505.17;1742571;81;20973;-77
2022/05/18 07:56:48;;;;;;;21.02;8.85;;;;;;;16.56;80.28;99503.86;1741987;81;21017;-75
2022/05/18 07:59:14;;;;;;;41.05;31.70;;;;;;;16.62;77.12;99511.14;1754621;81;20960;-80
2022/05/18 08:01:42;;;;;;;6.05;3.30;;;;;;;16.57;75.34;99514.52;1780944;81;21507;-77
2022/05/18 08:04:09;;;;;;;3.22;2.50;;;;;;;16.60;74.98;99515.98;1780930;81;21051;-80
2022/05/18 08:06:36;;;;;;;7.95;2.90;;;;;;;16.65;75.99;99506.06;1781543;81;21033;-80
2022/05/18 08:09:03;;;;;;;11.38;3.50;;;;;;;16.80;76.64;99507.61;1742363;81;21031;-81
2022/05/18 08:15:05;;;;;;;13.03;3.05;;;;;;;17.10;77.60;99498.73;1743656;81;21501;-80
2022/05/18 08:17:02;;;;;;;9.10;2.72;;;;;;;17.28;74.66;99495.98;1734483;82;21045;-79
2022/05/18 08:19:29;;;;;;;12.65;2.90;;;;;;;17.48;72.70;99490.83;1741917;81;21055;-77
2022/05/18 08:21:56;;;;;;;8.23;2.58;;;;;;;17.67;70.32;99495.72;1748511;81;20990;-76
2022/05/18 08:24:23;;;;;;;6.58;2.52;;;;;;;17.89;68.96;99499.66;1741415;81;21020;-78
2022/05/18 08:26:49;;;;;;;19.80;11.38;;;;;;;18.05;63.40;99499.53;1746577;81;21034;-75
2022/05/18 08:29:16;;;;;;;30.97;12.63;;;;;;;18.12;63.91;99498.06;1748129;81;21020;-76
2022/05/18 08:31:43;;;;;;;16.00;8.50;;;;;;;18.18;61.73;99501.22;1719531;82;21045;-74
2022/05/18 08:34:10;;;;;;;7.58;3.52;;;;;;;18.16;60.79;99494.61;1755197;81;20981;-78
2022/05/18 08:36:37;;;;;;;16.40;4.72;;;;;;;18.14;59.54;99488.55;1748473;81;21074;-75
2022/05/18 08:39:03;;;;;;;8.70;3.55;;;;;;;18.09;59.98;99489.78;1747877;81;21467;-77
2022/05/18 08:41:39;;;;;;;8.68;4.28;;;;;;;18.11;60.72;99489.00;1738686;82;21535;-77
2022/05/18 08:44:07;;;;;;;12.05;4.80;;;;;;;18.23;61.98;99483.56;1689077;84;21008;-74
2022/05/18 08:46:47;;;;;;;16.77;5.47;;;;;;;18.44;58.20;99475.34;1692629;85;21034;-78
2022/05/18 08:49:41;;;;;;;12.35;5.20;;;;;;;18.39;56.61;99472.47;1692973;83;20982;-75
2022/05/18 08:52:30;;;;;;;11.05;4.72;;;;;;;18.47;58.46;99471.28;1690350;83;21001;-75
2022/05/18 08:55:37;;;;;;;14.80;4.65;;;;;;;18.47;59.35;99472.12;1690147;85;21106;-74
2022/05/18 08:58:11;;;;;;;14.03;4.60;;;;;;;18.69;61.68;99469.63;1694636;83;21506;-73
2022/05/18 09:00:47;;;;;;;19.85;6.50;;;;;;;19.06;55.69;99458.98;1727785;83;21034;-79
2022/05/18 09:03:25;;;;;;;11.40;5.45;;;;;;;19.43;53.36;99471.81;1728077;83;21086;-75
2022/05/18 09:06:18;;;;;;;15.70;7.45;;;;;;;19.85;53.96;99473.48;1727483;83;21084;-75
2022/05/18 09:11:27;;;;;;;11.90;4.60;;;;;;;20.56;43.57;99460.69;1642752;87;21026;-80
2022/05/18 09:13:54;;;;;;;9.03;4.10;;;;;;;20.65;43.80;99463.33;1642453;87;21097;-78
2022/05/18 09:16:45;;;;;;;5.40;4.05;;;;;;;20.36;41.35;99462.03;1641837;87;21110;-77
2022/05/18 09:19:49;;;;;;;9.08;5.12;;;;;;;19.84;43.60;99469.06;1565178;91;21061;-77
2022/05/18 09:22:57;;;;;;;13.72;4.70;;;;;;;19.63;43.82;99465.06;1550219;92;21077;-76
2022/05/18 09:25:53;;;;;;;6.08;3.30;;;;;;;19.41;43.94;99455.33;1520511;93;21077;-70
2022/05/18 09:28:52;;;;;;;9.08;3.20;;;;;;;19.25;44.13;99458.29;1549629;92;21491;-72
2022/05/18 09:31:44;;;;;;;9.83;3.25;;;;;;;19.21;44.72;99455.72;1545278;92;21143;-80
2022/05/18 09:34:47;;;;;;;6.87;3.30;;;;;;;19.11;45.30;99454.98;1542178;93;21169;-80
2022/05/18 09:37:38;;;;;;;6.47;3.12;;;;;;;19.13;44.37;99459.13;1537927;92;21082;-81
2022/05/18 09:40:25;;;;;;;6.62;3.08;;;;;;;19.35;45.46;99459.33;1549151;89;70514;-77
2022/05/18 09:43:06;;;;;;;9.00;3.20;;;;;;;19.87;46.75;99455.69;1545803;91;21198;-77
2022/05/18 09:45:35;;;;;;;7.28;3.17;;;;;;;20.40;45.13;99455.50;1507119;94;21066;-78
2022/05/18 09:48:09;;;;;;;7.65;2.90;;;;;;;20.66;43.79;99453.98;1482328;94;21685;-80
2022/05/18 09:50:38;;;;;;;18.07;10.65;;;;;;;20.87;44.51;99446.88;1572620;91;21019;-79
2022/05/18 09:53:05;;;;;;;40.15;32.93;;;;;;;21.25;43.18;99442.44;1551782;91;21082;-79
2022/05/18 09:55:32;;;;;;;13.78;7.40;;;;;;;21.56;42.41;99439.52;1620989;86;21512;-77
2022/05/18 09:58:16;;;;;;;7.92;4.33;;;;;;;21.91;40.82;99440.98;1654360;86;21014;-79
2022/05/18 10:00:43;;;;;;;11.75;3.25;;;;;;;22.25;41.82;99442.67;1655998;86;20975;-77
2022/05/18 10:08:59;;;;;;;18.67;9.38;;;;;;;22.85;37.56;99431.00;1622003;86;21531;-73
2022/05/18 10:11:33;;;;;;;14.83;7.42;;;;;;;22.96;35.98;99428.56;1650432;86;21484;-74
2022/05/18 10:14:13;;;;;;;10.43;3.83;;;;;;;22.80;35.36;99425.45;1647850;86;21031;-75
2022/05/18 10:17:04;;;;;;;12.18;6.15;;;;;;;22.34;34.64;99431.48;1648750;86;21575;-77
2022/05/18 10:19:47;;;;;;;17.62;3.60;;;;;;;21.83;34.72;99434.57;1611674;88;21011;-78
2022/05/18 10:22:26;;;;;;;5.37;3.20;;;;;;;21.36;36.02;99443.40;1632734;86;21023;-77
2022/05/18 10:25:16;;;;;;;13.13;3.75;;;;;;;20.97;36.61;99437.41;1627563;86;21531;-76
2022/05/18 10:27:46;;;;;;;8.88;2.90;;;;;;;20.53;37.47;99451.57;1649934;86;21121;-76
2022/05/18 10:30:29;;;;;;;10.08;2.95;;;;;;;20.01;36.44;99452.09;1661118;86;21030;-76
2022/05/18 10:33:22;;;;;;;7.72;2.90;;;;;;;19.58;36.70;99456.19;1659930;86;21629;-76
2022/05/18 10:35:54;;;;;;;11.45;3.12;;;;;;;19.29;36.96;99453.44;1637213;86;21065;-77
2022/05/18 10:38:25;;;;;;;13.18;5.50;;;;;;;19.11;37.75;99455.80;1643697;86;21067;-75
2022/05/18 10:41:14;;;;;;;10.55;4.60;;;;;;;19.06;38.39;99449.39;1634201;86;21062;-75
2022/05/18 10:43:47;;;;;;;11.85;5.03;;;;;;;19.20;37.54;99454.89;1659832;86;21077;-75
2022/05/18 10:46:39;;;;;;;4.28;3.20;;;;;;;19.21;37.30;99458.46;1605397;89;21616;-77
2022/05/18 10:49:27;;;;;;;15.23;6.10;;;;;;;19.10;37.12;99456.04;1564364;90;21626;-76
2022/05/18 10:51:54;;;;;;;7.17;3.12;;;;;;;19.02;37.86;99446.84;1569056;88;21089;-77
2022/05/18 10:54:29;;;;;;;7.75;2.92;;;;;;;19.35;39.55;99442.89;1616545;88;21054;-75
2022/05/18 10:57:15;;;;;;;16.60;3.10;;;;;;;20.02;40.94;99433.72;1636901;88;21030;-79
2022/05/18 11:00:15;;;;;;;5.87;2.92;;;;;;;20.67;38.06;99435.88;1588757;90;21074;-78
2022/05/18 11:03:13;;;;;;;48.78;6.62;;;;;;;20.75;35.33;99426.92;1557077;92;21072;-77
2022/05/18 11:05:51;;;;;;;12.03;2.90;;;;;;;21.09;35.77;99444.69;1565350;92;21590;-77
2022/05/18 11:08:21;;;;;;;17.60;3.40;;;;;;;21.84;36.00;99436.80;1565559;92;21438;-77
2022/05/18 11:11:18;;;;;;;14.73;2.33;;;;;;;21.99;33.81;99439.15;1563458;92;21118;-75
2022/05/18 11:13:53;;;;;;;8.35;2.40;;;;;;;21.71;33.57;99450.41;1518124;92;21600;-75
2022/05/18 11:16:25;;;;;;;7.58;2.15;;;;;;;21.13;33.42;99459.05;1549940;92;21101;-76
2022/05/18 11:19:00;;;;;;;6.95;2.30;;;;;;;20.75;33.97;99457.14;1477945;96;21081;-77
2022/05/18 11:21:50;;;;;;;9.08;2.60;;;;;;;20.39;34.53;99464.80;1502005;94;21106;-75
2022/05/18 11:24:37;;;;;;;3.98;2.30;;;;;;;20.27;35.05;99462.13;1521648;94;21512;-77
2022/05/18 11:27:40;;;;;;;8.05;2.60;;;;;;;20.39;34.91;99449.70;1512013;94;21131;-76
2022/05/18 11:30:23;;;;;;;7.65;2.08;;;;;;;20.73;34.94;99447.77;1481195;96;21073;-76
2022/05/18 11:33:20;;;;;;;;;;;;;;;21.31;34.68;99432.34;1521209;93;21100;-76
2022/05/18 11:36:04;;;;;;;9.25;2.40;;;;;;;21.77;34.64;99435.07;1513517;94;20486;-75
2022/05/18 11:39:14;;;;;;;9.93;2.77;;;;;;;22.29;34.00;99435.04;1529558;94;21038;-78
2022/05/18 11:42:04;;;;;;;89.77;7.50;;;;;;;22.70;33.66;99433.95;1527887;93;21070;-76
2022/05/18 11:44:52;;;;;;;8.13;2.20;;;;;;;22.54;31.29;99441.80;1506730;94;21601;-77
2022/05/18 11:47:42;;;;;;;10.75;2.33;;;;;;;22.00;30.58;99444.09;1505733;94;21064;-77
2022/05/18 11:50:30;;;;;;;4.67;2.30;;;;;;;21.92;31.21;99445.94;1525666;94;21069;-76
2022/05/18 11:53:20;;;;;;;7.75;2.80;;;;;;;22.24;31.65;99448.73;1493466;95;21082;-76
2022/05/18 11:56:08;;;;;;;12.90;3.60;;;;;;;22.63;31.17;99444.90;1530641;90;21075;-76
2022/05/18 11:59:28;;;;;;;43.58;5.37;;;;;;;23.00;32.15;99439.89;1618156;88;21621;-74
2022/05/18 12:02:01;;;;;;;2.80;1.98;;;;;;;23.16;30.76;99453.23;1595657;90;21103;-71
2022/05/18 12:04:55;;;;;;;10.10;2.22;;;;;;;22.66;29.74;99449.89;1542421;92;21126;-71
2022/05/18 12:08:26;;;;;;;4.60;2.10;;;;;;;21.86;29.82;99460.20;1543649;92;21086;-72
2022/05/18 12:11:39;;;;;;;3.87;2.10;;;;;;;21.10;30.43;99460.92;1548767;92;21130;-71